createdAt,value
2016-12-07T00:07:37.221Z,1024.5
2016-12-07T00:17:51.142Z,1024.3
2016-12-07T00:28:04.357Z,1024.2
2016-12-07T00:38:17.852Z,1024
2016-12-07T00:48:32.246Z,1024.1
2016-12-07T00:58:46.453Z,1024
2016-12-07T01:09:00.547Z,1024.1
2016-12-07T01:19:15.161Z,1024.1
2016-12-07T01:29:29.311Z,1023.9
2016-12-07T01:39:42.847Z,1024.2
2016-12-07T01:49:56.991Z,1024.3
2016-12-07T02:00:12.154Z,1024.4
2016-12-07T02:10:26.200Z,1024.4
2016-12-07T02:20:40.982Z,1024.2
2016-12-07T02:30:55.028Z,1024.2
2016-12-07T02:41:08.340Z,1024
2016-12-07T02:51:21.725Z,1024.2
2016-12-07T03:01:36.115Z,1024.2
2016-12-07T03:11:51.076Z,1024.2
2016-12-07T03:22:06.045Z,1024.1
2016-12-07T03:32:20.165Z,1023.9
2016-12-07T03:42:34.606Z,1023.8
2016-12-07T03:52:48.830Z,1023.7
2016-12-07T04:03:03.764Z,1023.6
2016-12-07T04:13:17.388Z,1023.4
2016-12-07T04:23:31.436Z,1023.3
2016-12-07T04:33:45.774Z,1023.2
2016-12-07T04:43:59.257Z,1023.2
2016-12-07T04:54:12.590Z,1023.1
2016-12-07T05:04:25.921Z,1023.2
2016-12-07T05:14:40.778Z,1023.1
2016-12-07T05:24:54.028Z,1022.9
2016-12-07T05:35:08.094Z,1022.9
2016-12-07T05:45:22.779Z,1022.9
2016-12-07T05:55:37.410Z,1022.9
2016-12-07T06:05:50.699Z,1022.9
2016-12-07T06:26:18.948Z,1022.9
2016-12-07T06:36:33.205Z,1022.9
2016-12-07T06:46:46.251Z,1022.8
2016-12-07T06:56:59.413Z,1022.9
2016-12-07T07:07:12.953Z,1022.9
2016-12-07T07:17:26.936Z,1022.9
2016-12-07T07:27:41.795Z,1023
2016-12-07T07:37:56.725Z,1023.1
2016-12-07T07:48:11.378Z,1023.1
2016-12-07T07:58:26.341Z,1023.1
2016-12-07T08:18:53.184Z,1023.1
2016-12-07T08:29:07.888Z,1023.1
2016-12-07T08:59:50.141Z,1023.4
2016-12-07T09:10:04.733Z,1023.5
2016-12-07T09:20:19.888Z,1023.5
2016-12-07T09:30:33.212Z,1023.4
2016-12-07T09:40:46.289Z,1023.5
2016-12-07T09:51:00.125Z,1023.5
2016-12-07T10:01:14.342Z,1023.4
2016-12-07T10:11:27.363Z,1023.4
2016-12-07T10:21:41.975Z,1023.3
2016-12-07T10:31:55.922Z,1023.3
2016-12-07T10:42:09.935Z,1023.2
2016-12-07T10:52:24.064Z,1023
2016-12-07T11:12:52.442Z,1022.7
2016-12-07T11:23:05.910Z,1022.6
2016-12-07T11:33:20.038Z,1022.4
2016-12-07T11:43:33.780Z,1022.2
2016-12-07T11:53:48.623Z,1022.3
2016-12-07T12:04:01.681Z,1022.1
2016-12-07T12:24:28.659Z,1022.2
2016-12-07T12:34:43.661Z,1022.2
2016-12-07T12:44:57.027Z,1022.2
2016-12-07T12:55:11.196Z,1022.2
2016-12-07T13:05:25.136Z,1022.2
2016-12-07T13:15:38.624Z,1022.1
2016-12-07T13:25:53.329Z,1022
2016-12-07T13:36:07.684Z,1022
2016-12-07T13:46:21.013Z,1021.8
2016-12-07T13:56:35.097Z,1021.8
2016-12-07T14:06:48.826Z,1021.8
2016-12-07T14:17:02.925Z,1021.9
2016-12-07T14:27:16.632Z,1021.9
2016-12-07T14:37:30.087Z,1021.8
2016-12-07T14:47:43.743Z,1022
2016-12-07T15:08:10.981Z,1021.6
2016-12-07T15:28:37.538Z,1021.6
2016-12-07T15:38:51.933Z,1021.6
2016-12-07T15:49:06.561Z,1021.7
2016-12-07T15:59:20.383Z,1021.7
2016-12-07T16:09:35.004Z,1021.8
2016-12-07T16:30:01.299Z,1022
2016-12-07T16:40:15.470Z,1021.9
2016-12-07T16:50:30.161Z,1021.9
2016-12-07T17:00:44.527Z,1022
2016-12-07T17:10:58.774Z,1022.1
2016-12-07T17:21:12.082Z,1022.1
2016-12-07T17:31:26.364Z,1022.1
2016-12-07T17:41:40.746Z,1022.2
2016-12-07T18:02:09.405Z,1022.2
2016-12-07T18:12:23.945Z,1022
2016-12-07T18:22:38.811Z,1022.1
2016-12-07T18:32:53.061Z,1022.1
2016-12-07T18:43:07.425Z,1022.2
2016-12-07T18:53:20.869Z,1022.3
2016-12-07T19:03:34.177Z,1022.4
2016-12-07T19:13:49.043Z,1022.3
2016-12-07T19:24:03.715Z,1022.2
2016-12-07T19:34:17.463Z,1022.3
2016-12-07T19:44:31.450Z,1022.5
2016-12-07T19:54:46.429Z,1022.5
2016-12-07T20:04:59.648Z,1022.5
2016-12-07T20:15:13.388Z,1022.4
2016-12-07T20:25:27.367Z,1022.4
2016-12-07T20:35:40.504Z,1022.4
2016-12-07T20:45:54.145Z,1022.5
2016-12-07T20:56:07.532Z,1022.2
2016-12-07T21:06:22.557Z,1022.3
2016-12-07T21:16:36.104Z,1022.2
2016-12-07T21:26:50.394Z,1022.2
2016-12-07T21:37:04.279Z,1022.3
2016-12-07T21:47:18.185Z,1022.2
2016-12-07T21:57:31.760Z,1022.1
2016-12-07T22:07:46.304Z,1022.2
2016-12-07T22:18:00.576Z,1022.1
2016-12-07T22:28:13.919Z,1022.1
2016-12-07T22:38:28.953Z,1022
2016-12-07T22:48:42.889Z,1022
2016-12-07T22:58:56.010Z,1021.9
2016-12-07T23:09:09.711Z,1021.9
2016-12-07T23:19:24.501Z,1021.8
2016-12-07T23:29:37.912Z,1021.7
2016-12-07T23:39:51.969Z,1021.8
2016-12-07T23:50:05.038Z,1021.6
